sensor_id;sensor_type;location;lat;lon;timestamp;P1;durP1;ratioP1;P2;durP2;ratioP2
58567;SDS011;44354;46.192;-1.076;2022-08-02T00:00:06;1999.90;;;999.90;;
58567;SDS011;44354;46.192;-1.076;2022-08-02T00:02:32;467.80;;;439.40;;
58567;SDS011;44354;46.192;-1.076;2022-08-02T00:05:00;450.55;;;423.02;;
58567;SDS011;44354;46.192;-1.076;2022-08-02T00:07:26;1240.60;;;726.10;;
58567;SDS011;44354;46.192;-1.076;2022-08-02T00:09:52;1228.32;;;714.60;;
58567;SDS011;44354;46.192;-1.076;2022-08-02T00:12:17;1999.90;;;999.90;;
58567;SDS011;44354;46.192;-1.076;2022-08-02T00:14:43;831.88;;;561.50;;
58567;SDS011;44354;46.192;-1.076;2022-08-02T00:17:08;1243.10;;;728.38;;
58567;SDS011;44354;46.192;-1.076;2022-08-02T00:19:34;1999.90;;;999.90;;
58567;SDS011;44354;46.192;-1.076;2022-08-02T00:22:00;860.83;;;589.28;;
58567;SDS011;44354;46.192;-1.076;2022-08-02T00:24:26;1999.90;;;999.90;;
58567;SDS011;44354;46.192;-1.076;2022-08-02T00:26:51;1999.90;;;999.90;;
58567;SDS011;44354;46.192;-1.076;2022-08-02T00:29:17;1999.90;;;999.90;;
58567;SDS011;44354;46.192;-1.076;2022-08-02T00:31:42;1999.90;;;999.90;;
58567;SDS011;44354;46.192;-1.076;2022-08-02T00:34:08;1255.57;;;739.70;;
58567;SDS011;44354;46.192;-1.076;2022-08-02T00:36:34;1999.90;;;999.90;;
58567;SDS011;44354;46.192;-1.076;2022-08-02T00:38:59;1999.90;;;999.90;;
58567;SDS011;44354;46.192;-1.076;2022-08-02T00:41:25;1999.90;;;999.90;;
58567;SDS011;44354;46.192;-1.076;2022-08-02T00:43:51;1999.90;;;999.90;;
58567;SDS011;44354;46.192;-1.076;2022-08-02T00:46:17;1999.90;;;999.90;;
58567;SDS011;44354;46.192;-1.076;2022-08-02T00:48:44;1999.90;;;999.90;;
58567;SDS011;44354;46.192;-1.076;2022-08-02T00:51:10;1999.90;;;999.90;;
58567;SDS011;44354;46.192;-1.076;2022-08-02T00:53:37;1999.90;;;999.90;;
58567;SDS011;44354;46.192;-1.076;2022-08-02T00:56:03;1999.90;;;999.90;;
58567;SDS011;44354;46.192;-1.076;2022-08-02T00:58:29;1999.90;;;999.90;;
58567;SDS011;44354;46.192;-1.076;2022-08-02T01:00:54;1999.90;;;999.90;;
58567;SDS011;44354;46.192;-1.076;2022-08-02T01:03:22;1999.90;;;999.90;;
58567;SDS011;44354;46.192;-1.076;2022-08-02T01:05:48;1999.90;;;999.90;;
58567;SDS011;44354;46.192;-1.076;2022-08-02T01:08:14;1999.90;;;999.90;;
58567;SDS011;44354;46.192;-1.076;2022-08-02T01:10:40;1999.90;;;999.90;;
58567;SDS011;44354;46.192;-1.076;2022-08-02T01:13:06;1621.53;;;863.97;;
58567;SDS011;44354;46.192;-1.076;2022-08-02T01:15:32;1999.90;;;999.90;;
58567;SDS011;44354;46.192;-1.076;2022-08-02T01:18:04;1999.90;;;999.90;;
58567;SDS011;44354;46.192;-1.076;2022-08-02T01:34:12;1999.90;;;999.90;;
58567;SDS011;44354;46.192;-1.076;2022-08-02T01:37:08;1999.90;;;999.90;;
58567;SDS011;44354;46.192;-1.076;2022-08-02T01:39:30;1999.90;;;999.90;;
58567;SDS011;44354;46.192;-1.076;2022-08-02T01:42:00;1999.90;;;999.90;;
58567;SDS011;44354;46.192;-1.076;2022-08-02T01:44:27;1999.90;;;999.90;;
58567;SDS011;44354;46.192;-1.076;2022-08-02T01:46:58;1999.90;;;999.90;;
58567;SDS011;44354;46.192;-1.076;2022-08-02T01:49:28;1999.90;;;999.90;;
58567;SDS011;44354;46.192;-1.076;2022-08-02T01:51:56;1999.90;;;999.90;;
58567;SDS011;44354;46.192;-1.076;2022-08-02T01:54:42;1999.90;;;999.90;;
58567;SDS011;44354;46.192;-1.076;2022-08-02T01:57:09;1999.90;;;999.90;;
58567;SDS011;44354;46.192;-1.076;2022-08-02T01:59:37;1999.90;;;999.90;;
58567;SDS011;44354;46.192;-1.076;2022-08-02T02:02:06;1999.90;;;999.90;;
58567;SDS011;44354;46.192;-1.076;2022-08-02T02:04:33;1999.90;;;999.90;;
58567;SDS011;44354;46.192;-1.076;2022-08-02T02:07:00;1999.90;;;999.90;;
58567;SDS011;44354;46.192;-1.076;2022-08-02T02:09:27;1999.90;;;999.90;;
58567;SDS011;44354;46.192;-1.076;2022-08-02T02:11:56;1999.90;;;999.90;;
58567;SDS011;44354;46.192;-1.076;2022-08-02T02:14:24;1999.90;;;999.90;;
58567;SDS011;44354;46.192;-1.076;2022-08-02T02:16:52;1999.90;;;999.90;;
58567;SDS011;44354;46.192;-1.076;2022-08-02T02:19:20;1999.90;;;999.90;;
58567;SDS011;44354;46.192;-1.076;2022-08-02T02:21:47;1999.90;;;999.90;;
58567;SDS011;44354;46.192;-1.076;2022-08-02T02:24:13;1999.90;;;999.90;;
58567;SDS011;44354;46.192;-1.076;2022-08-02T02:26:39;1999.90;;;999.90;;
58567;SDS011;44354;46.192;-1.076;2022-08-02T02:29:07;1999.90;;;999.90;;
58567;SDS011;44354;46.192;-1.076;2022-08-02T02:31:38;1999.90;;;999.90;;
58567;SDS011;44354;46.192;-1.076;2022-08-02T02:34:13;1999.90;;;999.90;;
58567;SDS011;44354;46.192;-1.076;2022-08-02T02:36:51;1999.90;;;999.90;;
58567;SDS011;44354;46.192;-1.076;2022-08-02T02:39:22;1999.90;;;999.90;;
58567;SDS011;44354;46.192;-1.076;2022-08-02T02:41:50;1999.90;;;999.90;;
58567;SDS011;44354;46.192;-1.076;2022-08-02T02:44:19;1999.90;;;999.90;;
58567;SDS011;44354;46.192;-1.076;2022-08-02T02:46:47;1999.90;;;999.90;;
58567;SDS011;44354;46.192;-1.076;2022-08-02T02:49:15;1999.90;;;999.90;;
58567;SDS011;44354;46.192;-1.076;2022-08-02T02:51:43;1999.90;;;999.90;;
58567;SDS011;44354;46.192;-1.076;2022-08-02T02:54:10;1999.90;;;999.90;;
58567;SDS011;44354;46.192;-1.076;2022-08-02T02:56:37;1999.90;;;999.90;;
58567;SDS011;44354;46.192;-1.076;2022-08-02T02:59:04;1999.90;;;999.90;;
58567;SDS011;44354;46.192;-1.076;2022-08-02T03:01:32;1999.90;;;999.90;;
58567;SDS011;44354;46.192;-1.076;2022-08-02T03:03:59;1999.90;;;999.90;;
58567;SDS011;44354;46.192;-1.076;2022-08-02T03:06:28;1999.90;;;999.90;;
58567;SDS011;44354;46.192;-1.076;2022-08-02T03:08:54;1999.90;;;999.90;;
58567;SDS011;44354;46.192;-1.076;2022-08-02T03:11:21;1999.90;;;999.90;;
58567;SDS011;44354;46.192;-1.076;2022-08-02T03:13:48;1999.90;;;999.90;;
58567;SDS011;44354;46.192;-1.076;2022-08-02T03:16:15;1999.90;;;999.90;;
58567;SDS011;44354;46.192;-1.076;2022-08-02T03:18:41;1999.90;;;999.90;;
58567;SDS011;44354;46.192;-1.076;2022-08-02T03:21:11;1999.90;;;999.90;;
58567;SDS011;44354;46.192;-1.076;2022-08-02T03:23:38;1999.90;;;999.90;;
58567;SDS011;44354;46.192;-1.076;2022-08-02T03:26:05;1999.90;;;999.90;;
58567;SDS011;44354;46.192;-1.076;2022-08-02T03:28:32;1999.90;;;999.90;;
58567;SDS011;44354;46.192;-1.076;2022-08-02T03:30:58;1999.90;;;999.90;;
58567;SDS011;44354;46.192;-1.076;2022-08-02T03:33:24;1999.90;;;999.90;;
58567;SDS011;44354;46.192;-1.076;2022-08-02T03:35:53;1999.90;;;999.90;;
58567;SDS011;44354;46.192;-1.076;2022-08-02T03:38:21;1999.90;;;999.90;;
58567;SDS011;44354;46.192;-1.076;2022-08-02T03:40:49;1999.90;;;999.90;;
58567;SDS011;44354;46.192;-1.076;2022-08-02T03:43:15;1999.90;;;999.90;;
58567;SDS011;44354;46.192;-1.076;2022-08-02T03:45:42;1999.90;;;999.90;;
58567;SDS011;44354;46.192;-1.076;2022-08-02T03:48:12;1999.90;;;999.90;;
58567;SDS011;44354;46.192;-1.076;2022-08-02T03:50:39;1999.90;;;999.90;;
58567;SDS011;44354;46.192;-1.076;2022-08-02T03:53:06;1999.90;;;999.90;;
58567;SDS011;44354;46.192;-1.076;2022-08-02T03:55:32;1999.90;;;999.90;;
58567;SDS011;44354;46.192;-1.076;2022-08-02T03:57:59;1999.90;;;999.90;;
58567;SDS011;44354;46.192;-1.076;2022-08-02T04:00:25;1999.90;;;999.90;;
58567;SDS011;44354;46.192;-1.076;2022-08-02T04:02:51;1999.90;;;999.90;;
58567;SDS011;44354;46.192;-1.076;2022-08-02T04:05:17;1999.90;;;999.90;;
58567;SDS011;44354;46.192;-1.076;2022-08-02T04:07:43;1999.90;;;999.90;;
58567;SDS011;44354;46.192;-1.076;2022-08-02T04:10:09;1999.90;;;999.90;;
58567;SDS011;44354;46.192;-1.076;2022-08-02T04:12:35;1999.90;;;999.90;;
58567;SDS011;44354;46.192;-1.076;2022-08-02T04:15:02;1999.90;;;999.90;;
58567;SDS011;44354;46.192;-1.076;2022-08-02T04:17:30;1999.90;;;999.90;;
58567;SDS011;44354;46.192;-1.076;2022-08-02T04:20:19;1999.90;;;999.90;;
58567;SDS011;44354;46.192;-1.076;2022-08-02T04:25:18;1999.90;;;999.90;;
58567;SDS011;44354;46.192;-1.076;2022-08-02T04:27:45;1999.90;;;999.90;;
58567;SDS011;44354;46.192;-1.076;2022-08-02T04:30:11;1999.90;;;999.90;;
58567;SDS011;44354;46.192;-1.076;2022-08-02T04:32:39;1999.90;;;999.90;;
58567;SDS011;44354;46.192;-1.076;2022-08-02T04:35:07;1999.90;;;999.90;;
58567;SDS011;44354;46.192;-1.076;2022-08-02T04:37:33;1999.90;;;999.90;;
58567;SDS011;44354;46.192;-1.076;2022-08-02T04:40:00;1999.90;;;999.90;;
58567;SDS011;44354;46.192;-1.076;2022-08-02T04:42:26;1999.90;;;999.90;;
58567;SDS011;44354;46.192;-1.076;2022-08-02T04:44:52;1999.90;;;999.90;;
58567;SDS011;44354;46.192;-1.076;2022-08-02T04:47:18;1999.90;;;999.90;;
58567;SDS011;44354;46.192;-1.076;2022-08-02T04:49:45;1999.90;;;999.90;;
58567;SDS011;44354;46.192;-1.076;2022-08-02T04:52:11;1999.90;;;999.90;;
58567;SDS011;44354;46.192;-1.076;2022-08-02T04:54:37;1999.90;;;999.90;;
58567;SDS011;44354;46.192;-1.076;2022-08-02T04:57:03;1999.90;;;999.90;;
58567;SDS011;44354;46.192;-1.076;2022-08-02T04:59:49;1999.90;;;999.90;;
58567;SDS011;44354;46.192;-1.076;2022-08-02T05:02:14;1999.90;;;999.90;;
58567;SDS011;44354;46.192;-1.076;2022-08-02T05:04:40;1999.90;;;999.90;;
58567;SDS011;44354;46.192;-1.076;2022-08-02T05:07:06;1999.90;;;999.90;;
58567;SDS011;44354;46.192;-1.076;2022-08-02T05:09:33;1999.90;;;999.90;;
58567;SDS011;44354;46.192;-1.076;2022-08-02T05:11:58;1999.90;;;999.90;;
58567;SDS011;44354;46.192;-1.076;2022-08-02T05:14:24;1999.90;;;999.90;;
58567;SDS011;44354;46.192;-1.076;2022-08-02T05:16:49;1999.90;;;999.90;;
58567;SDS011;44354;46.192;-1.076;2022-08-02T05:19:15;1999.90;;;999.90;;
58567;SDS011;44354;46.192;-1.076;2022-08-02T05:21:41;1999.90;;;999.90;;
58567;SDS011;44354;46.192;-1.076;2022-08-02T05:24:06;1999.90;;;999.90;;
58567;SDS011;44354;46.192;-1.076;2022-08-02T05:26:33;1999.90;;;999.90;;
58567;SDS011;44354;46.192;-1.076;2022-08-02T05:28:59;1999.90;;;999.90;;
58567;SDS011;44354;46.192;-1.076;2022-08-02T05:31:25;1999.90;;;999.90;;
58567;SDS011;44354;46.192;-1.076;2022-08-02T05:33:50;1999.90;;;999.90;;
58567;SDS011;44354;46.192;-1.076;2022-08-02T05:36:16;1999.90;;;999.90;;
58567;SDS011;44354;46.192;-1.076;2022-08-02T05:38:41;1999.90;;;999.90;;
58567;SDS011;44354;46.192;-1.076;2022-08-02T05:41:07;1999.90;;;999.90;;
58567;SDS011;44354;46.192;-1.076;2022-08-02T05:43:33;1999.90;;;999.90;;
58567;SDS011;44354;46.192;-1.076;2022-08-02T05:45:58;1999.90;;;999.90;;
58567;SDS011;44354;46.192;-1.076;2022-08-02T05:48:24;1999.90;;;999.90;;
58567;SDS011;44354;46.192;-1.076;2022-08-02T05:50:53;1999.90;;;999.90;;
58567;SDS011;44354;46.192;-1.076;2022-08-02T05:59:03;1999.90;;;999.90;;
58567;SDS011;44354;46.192;-1.076;2022-08-02T06:01:39;1999.90;;;999.90;;
58567;SDS011;44354;46.192;-1.076;2022-08-02T06:04:07;1999.90;;;999.90;;
58567;SDS011;44354;46.192;-1.076;2022-08-02T06:06:34;1999.90;;;999.90;;
58567;SDS011;44354;46.192;-1.076;2022-08-02T06:09:03;1999.90;;;999.90;;
58567;SDS011;44354;46.192;-1.076;2022-08-02T06:11:37;1999.90;;;999.90;;
58567;SDS011;44354;46.192;-1.076;2022-08-02T06:14:07;1999.90;;;999.90;;
58567;SDS011;44354;46.192;-1.076;2022-08-02T06:16:34;1999.90;;;999.90;;
58567;SDS011;44354;46.192;-1.076;2022-08-02T06:19:00;1999.90;;;999.90;;
58567;SDS011;44354;46.192;-1.076;2022-08-02T06:21:26;1999.90;;;999.90;;
58567;SDS011;44354;46.192;-1.076;2022-08-02T06:23:52;1999.90;;;999.90;;
58567;SDS011;44354;46.192;-1.076;2022-08-02T06:26:22;1999.90;;;999.90;;
58567;SDS011;44354;46.192;-1.076;2022-08-02T06:28:50;1999.90;;;999.90;;
58567;SDS011;44354;46.192;-1.076;2022-08-02T06:31:16;1999.90;;;999.90;;
58567;SDS011;44354;46.192;-1.076;2022-08-02T06:33:43;1999.90;;;999.90;;
58567;SDS011;44354;46.192;-1.076;2022-08-02T06:36:09;1999.90;;;999.90;;
58567;SDS011;44354;46.192;-1.076;2022-08-02T06:38:48;1999.90;;;999.90;;
58567;SDS011;44354;46.192;-1.076;2022-08-02T06:41:19;1999.90;;;999.90;;
58567;SDS011;44354;46.192;-1.076;2022-08-02T06:43:57;1999.90;;;999.90;;
58567;SDS011;44354;46.192;-1.076;2022-08-02T06:46:24;1999.90;;;999.90;;
58567;SDS011;44354;46.192;-1.076;2022-08-02T06:48:51;1999.90;;;999.90;;
58567;SDS011;44354;46.192;-1.076;2022-08-02T06:51:16;1999.90;;;999.90;;
58567;SDS011;44354;46.192;-1.076;2022-08-02T06:53:42;1999.90;;;999.90;;
58567;SDS011;44354;46.192;-1.076;2022-08-02T06:56:08;1999.90;;;999.90;;
58567;SDS011;44354;46.192;-1.076;2022-08-02T06:58:34;1999.90;;;999.90;;
58567;SDS011;44354;46.192;-1.076;2022-08-02T07:00:59;1999.90;;;999.90;;
58567;SDS011;44354;46.192;-1.076;2022-08-02T07:03:25;1999.90;;;999.90;;
58567;SDS011;44354;46.192;-1.076;2022-08-02T07:05:51;1999.90;;;999.90;;
58567;SDS011;44354;46.192;-1.076;2022-08-02T07:08:18;1999.90;;;999.90;;
58567;SDS011;44354;46.192;-1.076;2022-08-02T07:10:44;1999.90;;;999.90;;
58567;SDS011;44354;46.192;-1.076;2022-08-02T07:13:10;1999.90;;;999.90;;
58567;SDS011;44354;46.192;-1.076;2022-08-02T07:15:36;1999.90;;;999.90;;
58567;SDS011;44354;46.192;-1.076;2022-08-02T07:18:03;1999.90;;;999.90;;
58567;SDS011;44354;46.192;-1.076;2022-08-02T07:20:29;1999.90;;;999.90;;
58567;SDS011;44354;46.192;-1.076;2022-08-02T07:22:55;1999.90;;;999.90;;
58567;SDS011;44354;46.192;-1.076;2022-08-02T07:25:20;1999.90;;;999.90;;
58567;SDS011;44354;46.192;-1.076;2022-08-02T07:27:46;1999.90;;;999.90;;
58567;SDS011;44354;46.192;-1.076;2022-08-02T07:30:12;466.25;;;438.30;;
58567;SDS011;44354;46.192;-1.076;2022-08-02T07:32:37;1633.18;;;874.88;;
58567;SDS011;44354;46.192;-1.076;2022-08-02T07:35:03;1999.90;;;999.90;;
58567;SDS011;44354;46.192;-1.076;2022-08-02T07:37:31;1999.90;;;999.90;;
58567;SDS011;44354;46.192;-1.076;2022-08-02T07:39:58;1999.90;;;999.90;;
58567;SDS011;44354;46.192;-1.076;2022-08-02T07:42:24;1999.90;;;999.90;;
58567;SDS011;44354;46.192;-1.076;2022-08-02T07:44:50;1999.90;;;999.90;;
58567;SDS011;44354;46.192;-1.076;2022-08-02T07:47:16;1999.90;;;999.90;;
58567;SDS011;44354;46.192;-1.076;2022-08-02T07:49:43;1999.90;;;999.90;;
58567;SDS011;44354;46.192;-1.076;2022-08-02T07:52:08;1999.90;;;999.90;;
58567;SDS011;44354;46.192;-1.076;2022-08-02T07:54:34;1999.90;;;999.90;;
58567;SDS011;44354;46.192;-1.076;2022-08-02T07:57:00;1999.90;;;999.90;;
58567;SDS011;44354;46.192;-1.076;2022-08-02T07:59:26;1999.90;;;999.90;;
58567;SDS011;44354;46.192;-1.076;2022-08-02T08:01:51;1999.90;;;999.90;;
58567;SDS011;44354;46.192;-1.076;2022-08-02T08:04:17;1999.90;;;999.90;;
58567;SDS011;44354;46.192;-1.076;2022-08-02T08:06:44;1325.97;;;802.35;;
58567;SDS011;44354;46.192;-1.076;2022-08-02T08:09:10;1999.90;;;999.90;;
58567;SDS011;44354;46.192;-1.076;2022-08-02T08:11:36;1680.90;;;917.47;;
58567;SDS011;44354;46.192;-1.076;2022-08-02T08:14:02;1041.55;;;752.75;;
58567;SDS011;44354;46.192;-1.076;2022-08-02T08:16:30;780.72;;;723.10;;
58567;SDS011;44354;46.192;-1.076;2022-08-02T08:18:56;790.25;;;732.38;;
58567;SDS011;44354;46.192;-1.076;2022-08-02T08:21:22;763.35;;;707.80;;
58567;SDS011;44354;46.192;-1.076;2022-08-02T08:23:48;773.00;;;715.13;;
58567;SDS011;44354;46.192;-1.076;2022-08-02T08:26:14;807.67;;;747.45;;
58567;SDS011;44354;46.192;-1.076;2022-08-02T08:28:40;1157.93;;;857.33;;
58567;SDS011;44354;46.192;-1.076;2022-08-02T08:31:06;877.55;;;808.42;;
58567;SDS011;44354;46.192;-1.076;2022-08-02T08:33:31;888.17;;;818.08;;
58567;SDS011;44354;46.192;-1.076;2022-08-02T08:35:57;886.72;;;816.72;;
58567;SDS011;44354;46.192;-1.076;2022-08-02T08:38:23;896.75;;;826.08;;
58567;SDS011;44354;46.192;-1.076;2022-08-02T08:40:49;905.75;;;833.80;;
58567;SDS011;44354;46.192;-1.076;2022-08-02T08:43:15;905.83;;;835.25;;
58567;SDS011;44354;46.192;-1.076;2022-08-02T08:45:44;881.28;;;810.97;;
58567;SDS011;44354;46.192;-1.076;2022-08-02T08:48:11;910.22;;;837.63;;
58567;SDS011;44354;46.192;-1.076;2022-08-02T08:50:49;906.00;;;835.42;;
58567;SDS011;44354;46.192;-1.076;2022-08-02T08:53:20;913.97;;;841.95;;
58567;SDS011;44354;46.192;-1.076;2022-08-02T08:55:47;896.15;;;826.35;;
58567;SDS011;44354;46.192;-1.076;2022-08-02T08:58:16;872.33;;;805.25;;
58567;SDS011;44354;46.192;-1.076;2022-08-02T09:00:42;912.45;;;842.33;;
58567;SDS011;44354;46.192;-1.076;2022-08-02T09:03:08;887.72;;;818.72;;
58567;SDS011;44354;46.192;-1.076;2022-08-02T09:05:35;891.47;;;822.08;;
58567;SDS011;44354;46.192;-1.076;2022-08-02T09:08:02;877.90;;;809.35;;
58567;SDS011;44354;46.192;-1.076;2022-08-02T09:10:32;886.20;;;816.60;;
58567;SDS011;44354;46.192;-1.076;2022-08-02T09:15:35;875.85;;;809.33;;
58567;SDS011;44354;46.192;-1.076;2022-08-02T09:18:05;853.95;;;790.53;;
58567;SDS011;44354;46.192;-1.076;2022-08-02T09:20:35;879.50;;;813.03;;
58567;SDS011;44354;46.192;-1.076;2022-08-02T09:26:09;831.30;;;768.75;;
58567;SDS011;44354;46.192;-1.076;2022-08-02T09:28:38;779.00;;;722.70;;
58567;SDS011;44354;46.192;-1.076;2022-08-02T09:31:18;786.97;;;727.67;;
58567;SDS011;44354;46.192;-1.076;2022-08-02T09:33:49;756.50;;;701.65;;
58567;SDS011;44354;46.192;-1.076;2022-08-02T09:36:16;743.00;;;688.78;;
58567;SDS011;44354;46.192;-1.076;2022-08-02T09:41:25;720.45;;;669.22;;
58567;SDS011;44354;46.192;-1.076;2022-08-02T09:43:52;720.65;;;668.22;;
58567;SDS011;44354;46.192;-1.076;2022-08-02T09:46:20;683.80;;;636.20;;
58567;SDS011;44354;46.192;-1.076;2022-08-02T09:48:51;686.10;;;638.42;;
58567;SDS011;44354;46.192;-1.076;2022-08-02T09:51:25;697.47;;;649.03;;
58567;SDS011;44354;46.192;-1.076;2022-08-02T09:53:55;675.70;;;629.55;;
58567;SDS011;44354;46.192;-1.076;2022-08-02T09:56:26;692.13;;;644.63;;
58567;SDS011;44354;46.192;-1.076;2022-08-02T09:59:05;697.78;;;649.60;;
58567;SDS011;44354;46.192;-1.076;2022-08-02T10:01:32;734.78;;;683.00;;
58567;SDS011;44354;46.192;-1.076;2022-08-02T10:03:59;715.28;;;665.75;;
58567;SDS011;44354;46.192;-1.076;2022-08-02T10:06:27;690.30;;;644.00;;
58567;SDS011;44354;46.192;-1.076;2022-08-02T10:08:55;687.38;;;640.33;;
58567;SDS011;44354;46.192;-1.076;2022-08-02T10:11:21;691.70;;;645.15;;
58567;SDS011;44354;46.192;-1.076;2022-08-02T10:13:48;687.75;;;640.60;;
58567;SDS011;44354;46.192;-1.076;2022-08-02T10:16:14;704.50;;;656.10;;
58567;SDS011;44354;46.192;-1.076;2022-08-02T10:18:42;701.30;;;654.38;;
58567;SDS011;44354;46.192;-1.076;2022-08-02T10:21:12;708.75;;;659.08;;
58567;SDS011;44354;46.192;-1.076;2022-08-02T10:23:40;688.92;;;641.85;;
58567;SDS011;44354;46.192;-1.076;2022-08-02T10:26:07;690.50;;;642.92;;
58567;SDS011;44354;46.192;-1.076;2022-08-02T10:28:36;676.40;;;631.03;;
58567;SDS011;44354;46.192;-1.076;2022-08-02T10:31:03;674.03;;;629.15;;
58567;SDS011;44354;46.192;-1.076;2022-08-02T10:33:34;692.25;;;645.10;;
58567;SDS011;44354;46.192;-1.076;2022-08-02T10:36:02;682.85;;;636.45;;
58567;SDS011;44354;46.192;-1.076;2022-08-02T10:38:29;683.90;;;637.83;;
58567;SDS011;44354;46.192;-1.076;2022-08-02T10:40:56;731.08;;;680.08;;
58567;SDS011;44354;46.192;-1.076;2022-08-02T10:57:00;846.03;;;781.88;;
58567;SDS011;44354;46.192;-1.076;2022-08-02T10:59:28;837.33;;;774.17;;
58567;SDS011;44354;46.192;-1.076;2022-08-02T11:02:01;848.70;;;784.47;;
58567;SDS011;44354;46.192;-1.076;2022-08-02T11:04:30;855.63;;;791.13;;
58567;SDS011;44354;46.192;-1.076;2022-08-02T11:07:06;862.45;;;798.35;;
58567;SDS011;44354;46.192;-1.076;2022-08-02T11:09:45;838.15;;;776.45;;
58567;SDS011;44354;46.192;-1.076;2022-08-02T11:12:13;854.17;;;789.13;;
58567;SDS011;44354;46.192;-1.076;2022-08-02T11:14:44;841.25;;;778.33;;
58567;SDS011;44354;46.192;-1.076;2022-08-02T11:17:25;866.35;;;801.13;;
58567;SDS011;44354;46.192;-1.076;2022-08-02T11:22:40;877.92;;;811.15;;
58567;SDS011;44354;46.192;-1.076;2022-08-02T11:27:58;854.45;;;790.50;;
58567;SDS011;44354;46.192;-1.076;2022-08-02T11:30:31;851.00;;;788.05;;
58567;SDS011;44354;46.192;-1.076;2022-08-02T11:32:57;862.08;;;796.70;;
58567;SDS011;44354;46.192;-1.076;2022-08-02T11:35:31;840.60;;;778.22;;
58567;SDS011;44354;46.192;-1.076;2022-08-02T11:37:59;861.53;;;794.90;;
58567;SDS011;44354;46.192;-1.076;2022-08-02T11:40:47;883.05;;;815.38;;
58567;SDS011;44354;46.192;-1.076;2022-08-02T11:43:21;895.47;;;826.22;;
58567;SDS011;44354;46.192;-1.076;2022-08-02T11:45:49;920.97;;;848.63;;
58567;SDS011;44354;46.192;-1.076;2022-08-02T11:48:29;929.55;;;856.40;;
58567;SDS011;44354;46.192;-1.076;2022-08-02T11:51:28;901.00;;;829.65;;
58567;SDS011;44354;46.192;-1.076;2022-08-02T11:53:48;909.60;;;838.47;;
58567;SDS011;44354;46.192;-1.076;2022-08-02T11:56:24;920.75;;;849.45;;
58567;SDS011;44354;46.192;-1.076;2022-08-02T11:59:04;921.35;;;849.83;;
58567;SDS011;44354;46.192;-1.076;2022-08-02T12:01:32;918.17;;;846.63;;
58567;SDS011;44354;46.192;-1.076;2022-08-02T12:03:58;902.13;;;832.95;;
58567;SDS011;44354;46.192;-1.076;2022-08-02T12:06:27;881.47;;;813.95;;
58567;SDS011;44354;46.192;-1.076;2022-08-02T12:09:06;937.95;;;863.17;;
58567;SDS011;44354;46.192;-1.076;2022-08-02T12:11:34;928.08;;;853.60;;
58567;SDS011;44354;46.192;-1.076;2022-08-02T12:14:00;920.22;;;848.58;;
58567;SDS011;44354;46.192;-1.076;2022-08-02T12:16:34;944.88;;;869.30;;
58567;SDS011;44354;46.192;-1.076;2022-08-02T12:19:20;925.22;;;851.35;;
58567;SDS011;44354;46.192;-1.076;2022-08-02T12:24:40;967.42;;;889.58;;
58567;SDS011;44354;46.192;-1.076;2022-08-02T12:27:08;958.25;;;881.15;;
58567;SDS011;44354;46.192;-1.076;2022-08-02T12:29:38;971.97;;;892.85;;
58567;SDS011;44354;46.192;-1.076;2022-08-02T12:32:04;953.00;;;875.97;;
58567;SDS011;44354;46.192;-1.076;2022-08-02T12:34:31;956.30;;;879.72;;
58567;SDS011;44354;46.192;-1.076;2022-08-02T12:37:00;966.53;;;886.80;;
58567;SDS011;44354;46.192;-1.076;2022-08-02T12:42:00;974.13;;;894.28;;
58567;SDS011;44354;46.192;-1.076;2022-08-02T12:44:26;953.28;;;874.17;;
58567;SDS011;44354;46.192;-1.076;2022-08-02T12:47:02;954.22;;;875.35;;
58567;SDS011;44354;46.192;-1.076;2022-08-02T12:49:30;961.30;;;882.30;;
58567;SDS011;44354;46.192;-1.076;2022-08-02T12:51:56;970.15;;;888.90;;
58567;SDS011;44354;46.192;-1.076;2022-08-02T12:54:23;971.75;;;892.65;;
58567;SDS011;44354;46.192;-1.076;2022-08-02T12:56:50;971.17;;;893.08;;
58567;SDS011;44354;46.192;-1.076;2022-08-02T12:59:16;975.00;;;894.83;;
58567;SDS011;44354;46.192;-1.076;2022-08-02T13:02:02;960.20;;;881.42;;
58567;SDS011;44354;46.192;-1.076;2022-08-02T13:04:29;976.78;;;897.92;;
58567;SDS011;44354;46.192;-1.076;2022-08-02T13:06:54;979.75;;;899.75;;
58567;SDS011;44354;46.192;-1.076;2022-08-02T13:09:20;976.10;;;896.03;;
58567;SDS011;44354;46.192;-1.076;2022-08-02T13:11:46;962.30;;;884.10;;
58567;SDS011;44354;46.192;-1.076;2022-08-02T13:14:13;949.70;;;873.17;;
58567;SDS011;44354;46.192;-1.076;2022-08-02T13:16:40;982.70;;;901.78;;
58567;SDS011;44354;46.192;-1.076;2022-08-02T13:19:06;925.72;;;852.78;;
58567;SDS011;44354;46.192;-1.076;2022-08-02T13:21:32;979.42;;;898.85;;
58567;SDS011;44354;46.192;-1.076;2022-08-02T13:23:57;931.10;;;857.67;;
58567;SDS011;44354;46.192;-1.076;2022-08-02T13:26:23;937.67;;;863.55;;
58567;SDS011;44354;46.192;-1.076;2022-08-02T13:28:50;962.45;;;885.17;;
58567;SDS011;44354;46.192;-1.076;2022-08-02T13:31:16;958.72;;;881.83;;
58567;SDS011;44354;46.192;-1.076;2022-08-02T13:33:42;950.25;;;873.63;;
58567;SDS011;44354;46.192;-1.076;2022-08-02T13:36:07;965.67;;;889.38;;
58567;SDS011;44354;46.192;-1.076;2022-08-02T13:38:33;949.88;;;874.50;;
58567;SDS011;44354;46.192;-1.076;2022-08-02T13:40:59;927.17;;;854.03;;
58567;SDS011;44354;46.192;-1.076;2022-08-02T13:43:34;940.20;;;865.83;;
58567;SDS011;44354;46.192;-1.076;2022-08-02T13:46:00;941.00;;;867.20;;
58567;SDS011;44354;46.192;-1.076;2022-08-02T13:48:26;924.58;;;852.17;;
58567;SDS011;44354;46.192;-1.076;2022-08-02T13:50:52;936.63;;;862.60;;
58567;SDS011;44354;46.192;-1.076;2022-08-02T13:53:18;941.67;;;867.25;;
58567;SDS011;44354;46.192;-1.076;2022-08-02T13:55:44;943.28;;;869.63;;
58567;SDS011;44354;46.192;-1.076;2022-08-02T13:58:09;981.33;;;899.78;;
58567;SDS011;44354;46.192;-1.076;2022-08-02T14:00:35;956.58;;;880.53;;
58567;SDS011;44354;46.192;-1.076;2022-08-02T14:03:01;950.65;;;875.05;;
58567;SDS011;44354;46.192;-1.076;2022-08-02T14:05:28;949.35;;;872.92;;
58567;SDS011;44354;46.192;-1.076;2022-08-02T14:07:56;949.10;;;872.65;;
58567;SDS011;44354;46.192;-1.076;2022-08-02T14:10:22;970.70;;;891.95;;
58567;SDS011;44354;46.192;-1.076;2022-08-02T14:12:50;983.58;;;901.35;;
58567;SDS011;44354;46.192;-1.076;2022-08-02T14:15:16;999.55;;;913.53;;
58567;SDS011;44354;46.192;-1.076;2022-08-02T14:17:42;1010.10;;;924.08;;
58567;SDS011;44354;46.192;-1.076;2022-08-02T14:20:08;1008.97;;;923.17;;
58567;SDS011;44354;46.192;-1.076;2022-08-02T14:22:34;988.05;;;905.25;;
58567;SDS011;44354;46.192;-1.076;2022-08-02T14:25:00;1017.65;;;932.55;;
58567;SDS011;44354;46.192;-1.076;2022-08-02T14:27:25;985.88;;;902.53;;
58567;SDS011;44354;46.192;-1.076;2022-08-02T14:29:51;1002.38;;;917.05;;
58567;SDS011;44354;46.192;-1.076;2022-08-02T14:32:17;991.60;;;906.03;;
58567;SDS011;44354;46.192;-1.076;2022-08-02T14:34:42;971.22;;;889.33;;
58567;SDS011;44354;46.192;-1.076;2022-08-02T14:37:08;1002.72;;;916.28;;